sensor_id;sensor_type;location;lat;lon;timestamp;temperature;humidity
14049;DHT22;7099;53.922;10.728;2023-09-30T00:02:06;14.40;91.50
14049;DHT22;7099;53.922;10.728;2023-09-30T00:06:12;14.30;91.50
14049;DHT22;7099;53.922;10.728;2023-09-30T00:10:18;14.30;91.60
14049;DHT22;7099;53.922;10.728;2023-09-30T00:14:23;14.30;91.60
14049;DHT22;7099;53.922;10.728;2023-09-30T00:18:29;14.20;91.70
14049;DHT22;7099;53.922;10.728;2023-09-30T00:22:35;14.10;91.60
14049;DHT22;7099;53.922;10.728;2023-09-30T00:26:40;14.10;91.70
14049;DHT22;7099;53.922;10.728;2023-09-30T00:30:47;14.10;91.70
14049;DHT22;7099;53.922;10.728;2023-09-30T00:34:53;14.00;91.90
14049;DHT22;7099;53.922;10.728;2023-09-30T00:38:59;14.00;91.70
14049;DHT22;7099;53.922;10.728;2023-09-30T00:43:05;13.90;91.70
14049;DHT22;7099;53.922;10.728;2023-09-30T00:47:11;13.90;91.80
14049;DHT22;7099;53.922;10.728;2023-09-30T00:51:17;13.90;91.70
14049;DHT22;7099;53.922;10.728;2023-09-30T00:55:23;13.80;91.70
14049;DHT22;7099;53.922;10.728;2023-09-30T00:59:31;13.80;91.90
14049;DHT22;7099;53.922;10.728;2023-09-30T01:03:37;13.70;91.90
14049;DHT22;7099;53.922;10.728;2023-09-30T01:07:43;14.00;91.90
14049;DHT22;7099;53.922;10.728;2023-09-30T01:11:48;14.20;91.50
14049;DHT22;7099;53.922;10.728;2023-09-30T01:15:54;14.30;91.40
14049;DHT22;7099;53.922;10.728;2023-09-30T01:19:59;14.30;91.20
14049;DHT22;7099;53.922;10.728;2023-09-30T01:24:05;14.30;91.00
14049;DHT22;7099;53.922;10.728;2023-09-30T01:28:11;14.30;91.40
14049;DHT22;7099;53.922;10.728;2023-09-30T01:32:16;14.30;91.20
14049;DHT22;7099;53.922;10.728;2023-09-30T01:36:21;14.30;91.30
14049;DHT22;7099;53.922;10.728;2023-09-30T01:40:27;14.30;91.30
14049;DHT22;7099;53.922;10.728;2023-09-30T01:44:32;14.30;91.30
14049;DHT22;7099;53.922;10.728;2023-09-30T01:48:38;14.30;91.40
14049;DHT22;7099;53.922;10.728;2023-09-30T01:52:45;14.30;91.20
14049;DHT22;7099;53.922;10.728;2023-09-30T01:56:50;14.20;91.40
14049;DHT22;7099;53.922;10.728;2023-09-30T02:01:01;14.20;91.40
14049;DHT22;7099;53.922;10.728;2023-09-30T02:05:08;14.20;91.40
14049;DHT22;7099;53.922;10.728;2023-09-30T02:09:13;14.20;91.20
14049;DHT22;7099;53.922;10.728;2023-09-30T02:13:19;14.10;91.40
14049;DHT22;7099;53.922;10.728;2023-09-30T02:17:25;14.10;91.40
14049;DHT22;7099;53.922;10.728;2023-09-30T02:21:30;14.10;91.50
14049;DHT22;7099;53.922;10.728;2023-09-30T02:25:39;14.10;91.50
14049;DHT22;7099;53.922;10.728;2023-09-30T02:29:44;13.70;92.00
14049;DHT22;7099;53.922;10.728;2023-09-30T02:33:50;13.40;92.20
14049;DHT22;7099;53.922;10.728;2023-09-30T02:37:56;13.30;92.40
14049;DHT22;7099;53.922;10.728;2023-09-30T02:42:01;13.20;92.80
14049;DHT22;7099;53.922;10.728;2023-09-30T02:46:06;13.10;92.70
14049;DHT22;7099;53.922;10.728;2023-09-30T02:50:13;13.10;92.40
14049;DHT22;7099;53.922;10.728;2023-09-30T02:54:19;13.10;92.40
14049;DHT22;7099;53.922;10.728;2023-09-30T02:58:24;13.00;92.40
14049;DHT22;7099;53.922;10.728;2023-09-30T03:02:30;13.00;92.60
14049;DHT22;7099;53.922;10.728;2023-09-30T03:06:35;13.00;92.70
14049;DHT22;7099;53.922;10.728;2023-09-30T03:10:44;13.00;92.60
14049;DHT22;7099;53.922;10.728;2023-09-30T03:14:49;12.90;92.60
14049;DHT22;7099;53.922;10.728;2023-09-30T03:18:56;12.90;92.50
14049;DHT22;7099;53.922;10.728;2023-09-30T03:23:02;12.90;92.60
14049;DHT22;7099;53.922;10.728;2023-09-30T03:27:09;12.90;92.60
14049;DHT22;7099;53.922;10.728;2023-09-30T03:31:19;12.90;92.50
14049;DHT22;7099;53.922;10.728;2023-09-30T03:35:25;12.80;92.70
14049;DHT22;7099;53.922;10.728;2023-09-30T03:39:31;12.80;92.70
14049;DHT22;7099;53.922;10.728;2023-09-30T03:43:37;12.70;92.80
14049;DHT22;7099;53.922;10.728;2023-09-30T03:47:46;12.70;92.80
14049;DHT22;7099;53.922;10.728;2023-09-30T03:51:53;12.70;92.90
14049;DHT22;7099;53.922;10.728;2023-09-30T03:55:59;12.70;92.90
14049;DHT22;7099;53.922;10.728;2023-09-30T04:00:05;12.60;92.90
14049;DHT22;7099;53.922;10.728;2023-09-30T04:04:11;12.60;92.90
14049;DHT22;7099;53.922;10.728;2023-09-30T04:08:17;12.60;92.90
14049;DHT22;7099;53.922;10.728;2023-09-30T04:12:22;12.60;92.90
14049;DHT22;7099;53.922;10.728;2023-09-30T04:16:28;12.60;92.90
14049;DHT22;7099;53.922;10.728;2023-09-30T04:20:35;12.60;92.90
14049;DHT22;7099;53.922;10.728;2023-09-30T04:24:45;12.50;92.80
14049;DHT22;7099;53.922;10.728;2023-09-30T04:28:51;12.50;92.80
14049;DHT22;7099;53.922;10.728;2023-09-30T04:33:01;12.50;92.80
14049;DHT22;7099;53.922;10.728;2023-09-30T04:37:10;12.40;92.80
14049;DHT22;7099;53.922;10.728;2023-09-30T04:41:15;12.40;92.90
14049;DHT22;7099;53.922;10.728;2023-09-30T04:45:21;12.40;93.00
14049;DHT22;7099;53.922;10.728;2023-09-30T04:49:30;12.40;93.00
14049;DHT22;7099;53.922;10.728;2023-09-30T04:53:36;12.30;93.00
14049;DHT22;7099;53.922;10.728;2023-09-30T04:57:43;12.40;93.10
14049;DHT22;7099;53.922;10.728;2023-09-30T05:01:53;12.30;93.00
14049;DHT22;7099;53.922;10.728;2023-09-30T05:05:59;12.30;93.10
14049;DHT22;7099;53.922;10.728;2023-09-30T05:10:05;12.30;93.10
14049;DHT22;7099;53.922;10.728;2023-09-30T05:14:15;12.30;93.10
14049;DHT22;7099;53.922;10.728;2023-09-30T05:18:21;12.30;93.10
14049;DHT22;7099;53.922;10.728;2023-09-30T05:22:27;12.30;93.10
14049;DHT22;7099;53.922;10.728;2023-09-30T05:26:35;12.30;93.20
14049;DHT22;7099;53.922;10.728;2023-09-30T05:30:40;12.30;93.20
14049;DHT22;7099;53.922;10.728;2023-09-30T05:34:46;12.30;93.20
14049;DHT22;7099;53.922;10.728;2023-09-30T05:38:54;12.30;93.30
14049;DHT22;7099;53.922;10.728;2023-09-30T05:43:00;12.30;93.40
14049;DHT22;7099;53.922;10.728;2023-09-30T05:47:06;12.30;93.50
14049;DHT22;7099;53.922;10.728;2023-09-30T05:51:11;12.30;93.50
14049;DHT22;7099;53.922;10.728;2023-09-30T05:55:20;12.40;93.60
14049;DHT22;7099;53.922;10.728;2023-09-30T05:59:27;12.40;93.70
14049;DHT22;7099;53.922;10.728;2023-09-30T06:03:33;12.40;93.80
14049;DHT22;7099;53.922;10.728;2023-09-30T06:07:45;12.40;93.80
14049;DHT22;7099;53.922;10.728;2023-09-30T06:11:51;12.50;93.90
14049;DHT22;7099;53.922;10.728;2023-09-30T06:15:56;12.50;94.00
14049;DHT22;7099;53.922;10.728;2023-09-30T06:20:06;12.50;93.90
14049;DHT22;7099;53.922;10.728;2023-09-30T06:24:20;12.60;93.90
14049;DHT22;7099;53.922;10.728;2023-09-30T06:28:26;12.60;94.10
14049;DHT22;7099;53.922;10.728;2023-09-30T06:32:33;12.70;94.00
14049;DHT22;7099;53.922;10.728;2023-09-30T06:36:38;12.70;94.10
14049;DHT22;7099;53.922;10.728;2023-09-30T06:40:44;12.70;94.10
14049;DHT22;7099;53.922;10.728;2023-09-30T06:44:52;12.80;94.20
14049;DHT22;7099;53.922;10.728;2023-09-30T06:48:58;12.80;94.20
14049;DHT22;7099;53.922;10.728;2023-09-30T06:53:04;12.90;94.20
14049;DHT22;7099;53.922;10.728;2023-09-30T06:57:10;12.90;94.30
14049;DHT22;7099;53.922;10.728;2023-09-30T07:01:15;13.00;94.40
14049;DHT22;7099;53.922;10.728;2023-09-30T07:05:24;13.00;94.50
14049;DHT22;7099;53.922;10.728;2023-09-30T07:09:29;13.10;94.50
14049;DHT22;7099;53.922;10.728;2023-09-30T07:13:35;13.20;94.50
14049;DHT22;7099;53.922;10.728;2023-09-30T07:17:41;13.30;94.60
14049;DHT22;7099;53.922;10.728;2023-09-30T07:21:50;13.40;94.60
14049;DHT22;7099;53.922;10.728;2023-09-30T07:26:08;13.50;94.60
14049;DHT22;7099;53.922;10.728;2023-09-30T07:30:13;13.60;94.50
14049;DHT22;7099;53.922;10.728;2023-09-30T07:34:23;13.70;94.50
14049;DHT22;7099;53.922;10.728;2023-09-30T07:38:28;13.80;94.40
14049;DHT22;7099;53.922;10.728;2023-09-30T07:42:34;13.90;94.40
14049;DHT22;7099;53.922;10.728;2023-09-30T07:46:40;14.00;94.30
14049;DHT22;7099;53.922;10.728;2023-09-30T07:50:45;14.10;94.20
14049;DHT22;7099;53.922;10.728;2023-09-30T07:54:52;14.20;94.00
14049;DHT22;7099;53.922;10.728;2023-09-30T07:58:57;14.40;94.10
14049;DHT22;7099;53.922;10.728;2023-09-30T08:03:03;14.50;93.90
14049;DHT22;7099;53.922;10.728;2023-09-30T08:07:09;14.50;93.70
14049;DHT22;7099;53.922;10.728;2023-09-30T08:11:15;14.60;93.70
14049;DHT22;7099;53.922;10.728;2023-09-30T08:15:20;14.70;93.60
14049;DHT22;7099;53.922;10.728;2023-09-30T08:19:26;14.80;93.60
14049;DHT22;7099;53.922;10.728;2023-09-30T08:23:31;14.90;93.40
14049;DHT22;7099;53.922;10.728;2023-09-30T08:27:37;15.00;93.30
14049;DHT22;7099;53.922;10.728;2023-09-30T08:31:44;15.10;93.20
14049;DHT22;7099;53.922;10.728;2023-09-30T08:35:49;15.20;93.20
14049;DHT22;7099;53.922;10.728;2023-09-30T08:39:56;15.30;92.90
14049;DHT22;7099;53.922;10.728;2023-09-30T08:44:03;15.40;92.80
14049;DHT22;7099;53.922;10.728;2023-09-30T08:48:09;15.50;92.60
14049;DHT22;7099;53.922;10.728;2023-09-30T08:52:15;15.70;92.60
14049;DHT22;7099;53.922;10.728;2023-09-30T08:56:26;15.70;92.40
14049;DHT22;7099;53.922;10.728;2023-09-30T09:00:33;15.80;92.20
14049;DHT22;7099;53.922;10.728;2023-09-30T09:04:39;15.90;92.30
14049;DHT22;7099;53.922;10.728;2023-09-30T09:08:45;16.00;92.10
14049;DHT22;7099;53.922;10.728;2023-09-30T09:12:56;16.10;91.90
14049;DHT22;7099;53.922;10.728;2023-09-30T09:17:03;16.30;92.20
14049;DHT22;7099;53.922;10.728;2023-09-30T09:21:17;16.40;91.80
14049;DHT22;7099;53.922;10.728;2023-09-30T09:25:25;16.40;91.70
14049;DHT22;7099;53.922;10.728;2023-09-30T09:29:30;16.50;91.60
14049;DHT22;7099;53.922;10.728;2023-09-30T09:33:36;16.60;91.50
14049;DHT22;7099;53.922;10.728;2023-09-30T09:37:57;16.70;91.30
14049;DHT22;7099;53.922;10.728;2023-09-30T09:42:03;16.80;91.10
14049;DHT22;7099;53.922;10.728;2023-09-30T09:46:11;16.90;91.10
14049;DHT22;7099;53.922;10.728;2023-09-30T09:50:17;17.00;91.00
14049;DHT22;7099;53.922;10.728;2023-09-30T09:54:25;17.10;90.60
14049;DHT22;7099;53.922;10.728;2023-09-30T09:58:33;17.20;90.60
14049;DHT22;7099;53.922;10.728;2023-09-30T10:02:40;17.30;90.50
14049;DHT22;7099;53.922;10.728;2023-09-30T10:06:50;17.40;90.30
14049;DHT22;7099;53.922;10.728;2023-09-30T10:10:57;17.40;90.10
14049;DHT22;7099;53.922;10.728;2023-09-30T10:19:32;17.60;89.70
14049;DHT22;7099;53.922;10.728;2023-09-30T10:23:38;17.70;89.60
14049;DHT22;7099;53.922;10.728;2023-09-30T10:27:43;17.80;89.30
14049;DHT22;7099;53.922;10.728;2023-09-30T10:31:50;18.00;89.50
14049;DHT22;7099;53.922;10.728;2023-09-30T10:35:57;18.10;88.60
14049;DHT22;7099;53.922;10.728;2023-09-30T10:40:03;18.10;88.30
14049;DHT22;7099;53.922;10.728;2023-09-30T10:48:36;18.20;87.00
14049;DHT22;7099;53.922;10.728;2023-09-30T10:52:47;18.20;87.40
14049;DHT22;7099;53.922;10.728;2023-09-30T10:56:54;18.20;87.20
14049;DHT22;7099;53.922;10.728;2023-09-30T11:00:59;18.20;87.30
14049;DHT22;7099;53.922;10.728;2023-09-30T11:05:09;18.20;88.30
14049;DHT22;7099;53.922;10.728;2023-09-30T11:09:22;18.30;86.40
14049;DHT22;7099;53.922;10.728;2023-09-30T11:13:36;18.40;85.60
14049;DHT22;7099;53.922;10.728;2023-09-30T11:17:41;18.50;85.80
14049;DHT22;7099;53.922;10.728;2023-09-30T11:21:51;18.60;85.40
14049;DHT22;7099;53.922;10.728;2023-09-30T11:25:57;18.60;84.60
14049;DHT22;7099;53.922;10.728;2023-09-30T11:30:04;18.60;86.10
14049;DHT22;7099;53.922;10.728;2023-09-30T11:34:11;18.70;85.00
14049;DHT22;7099;53.922;10.728;2023-09-30T11:38:17;18.70;83.60
14049;DHT22;7099;53.922;10.728;2023-09-30T11:42:23;18.70;83.70
14049;DHT22;7099;53.922;10.728;2023-09-30T11:46:29;18.70;84.00
14049;DHT22;7099;53.922;10.728;2023-09-30T11:50:50;18.70;83.80
14049;DHT22;7099;53.922;10.728;2023-09-30T11:54:56;18.80;84.40
14049;DHT22;7099;53.922;10.728;2023-09-30T11:59:03;19.00;84.40
14049;DHT22;7099;53.922;10.728;2023-09-30T12:03:09;19.10;83.70
14049;DHT22;7099;53.922;10.728;2023-09-30T12:07:16;19.10;83.00
14049;DHT22;7099;53.922;10.728;2023-09-30T12:11:21;19.20;82.80
14049;DHT22;7099;53.922;10.728;2023-09-30T12:15:29;19.20;82.40
14049;DHT22;7099;53.922;10.728;2023-09-30T12:19:34;19.20;82.20
14049;DHT22;7099;53.922;10.728;2023-09-30T12:23:42;19.30;82.90
14049;DHT22;7099;53.922;10.728;2023-09-30T12:27:48;19.30;81.70
14049;DHT22;7099;53.922;10.728;2023-09-30T12:31:54;19.30;81.70
14049;DHT22;7099;53.922;10.728;2023-09-30T12:36:00;19.40;81.30
14049;DHT22;7099;53.922;10.728;2023-09-30T12:40:06;19.60;80.80
14049;DHT22;7099;53.922;10.728;2023-09-30T12:44:13;19.60;80.40
14049;DHT22;7099;53.922;10.728;2023-09-30T12:48:19;19.60;79.60
14049;DHT22;7099;53.922;10.728;2023-09-30T12:52:24;19.50;78.40
14049;DHT22;7099;53.922;10.728;2023-09-30T12:56:30;19.60;77.80
14049;DHT22;7099;53.922;10.728;2023-09-30T13:00:37;19.60;77.20
14049;DHT22;7099;53.922;10.728;2023-09-30T13:04:42;19.50;77.00
14049;DHT22;7099;53.922;10.728;2023-09-30T13:08:48;19.60;76.70
14049;DHT22;7099;53.922;10.728;2023-09-30T13:12:54;19.60;75.20
14049;DHT22;7099;53.922;10.728;2023-09-30T13:17:00;19.60;75.50
14049;DHT22;7099;53.922;10.728;2023-09-30T13:21:11;19.70;76.40
14049;DHT22;7099;53.922;10.728;2023-09-30T13:25:17;19.70;76.60
14049;DHT22;7099;53.922;10.728;2023-09-30T13:29:24;19.70;76.60
14049;DHT22;7099;53.922;10.728;2023-09-30T13:33:30;19.60;76.40
14049;DHT22;7099;53.922;10.728;2023-09-30T13:37:35;19.60;76.80
14049;DHT22;7099;53.922;10.728;2023-09-30T13:41:42;19.60;76.90
14049;DHT22;7099;53.922;10.728;2023-09-30T13:45:47;19.50;76.20
14049;DHT22;7099;53.922;10.728;2023-09-30T13:49:54;19.40;76.60
14049;DHT22;7099;53.922;10.728;2023-09-30T13:54:00;19.40;77.60
14049;DHT22;7099;53.922;10.728;2023-09-30T13:58:06;19.30;77.90
14049;DHT22;7099;53.922;10.728;2023-09-30T14:02:12;19.30;77.80
14049;DHT22;7099;53.922;10.728;2023-09-30T14:06:18;19.40;78.20
14049;DHT22;7099;53.922;10.728;2023-09-30T14:10:23;19.40;78.90
14049;DHT22;7099;53.922;10.728;2023-09-30T14:14:31;19.60;78.90
14049;DHT22;7099;53.922;10.728;2023-09-30T14:18:38;19.60;77.70
14049;DHT22;7099;53.922;10.728;2023-09-30T14:22:44;19.40;78.40
14049;DHT22;7099;53.922;10.728;2023-09-30T14:26:51;19.40;78.50
14049;DHT22;7099;53.922;10.728;2023-09-30T14:30:57;19.30;79.10
14049;DHT22;7099;53.922;10.728;2023-09-30T14:35:02;19.20;79.10
14049;DHT22;7099;53.922;10.728;2023-09-30T14:39:11;19.20;78.90
14049;DHT22;7099;53.922;10.728;2023-09-30T14:43:19;19.10;79.00
14049;DHT22;7099;53.922;10.728;2023-09-30T14:47:25;19.10;79.50
14049;DHT22;7099;53.922;10.728;2023-09-30T14:51:31;19.10;78.10
14049;DHT22;7099;53.922;10.728;2023-09-30T14:55:37;19.10;77.90
14049;DHT22;7099;53.922;10.728;2023-09-30T14:59:42;19.10;77.80
14049;DHT22;7099;53.922;10.728;2023-09-30T15:03:48;19.10;77.70
14049;DHT22;7099;53.922;10.728;2023-09-30T15:07:54;19.20;77.50
14049;DHT22;7099;53.922;10.728;2023-09-30T15:11:59;19.20;77.40
14049;DHT22;7099;53.922;10.728;2023-09-30T15:16:05;19.20;77.60
14049;DHT22;7099;53.922;10.728;2023-09-30T15:20:14;19.20;78.10
14049;DHT22;7099;53.922;10.728;2023-09-30T15:24:19;19.20;78.00
14049;DHT22;7099;53.922;10.728;2023-09-30T15:28:25;19.20;78.40
14049;DHT22;7099;53.922;10.728;2023-09-30T15:32:30;19.20;78.60
14049;DHT22;7099;53.922;10.728;2023-09-30T15:36:36;19.20;78.40
14049;DHT22;7099;53.922;10.728;2023-09-30T15:40:56;19.20;78.00
14049;DHT22;7099;53.922;10.728;2023-09-30T15:45:09;19.20;78.00
14049;DHT22;7099;53.922;10.728;2023-09-30T15:49:15;19.10;78.50
14049;DHT22;7099;53.922;10.728;2023-09-30T15:53:21;19.00;78.80
14049;DHT22;7099;53.922;10.728;2023-09-30T15:57:26;19.00;79.00
14049;DHT22;7099;53.922;10.728;2023-09-30T16:01:32;18.90;78.70
14049;DHT22;7099;53.922;10.728;2023-09-30T16:05:39;18.80;78.90
14049;DHT22;7099;53.922;10.728;2023-09-30T16:09:44;18.70;78.40
14049;DHT22;7099;53.922;10.728;2023-09-30T16:13:50;18.60;78.40
14049;DHT22;7099;53.922;10.728;2023-09-30T16:17:57;18.50;78.30
14049;DHT22;7099;53.922;10.728;2023-09-30T16:22:03;18.40;78.70
14049;DHT22;7099;53.922;10.728;2023-09-30T16:26:13;18.30;79.00
14049;DHT22;7099;53.922;10.728;2023-09-30T16:30:19;18.30;80.00
14049;DHT22;7099;53.922;10.728;2023-09-30T16:34:25;18.20;80.50
14049;DHT22;7099;53.922;10.728;2023-09-30T16:38:30;18.20;80.80
14049;DHT22;7099;53.922;10.728;2023-09-30T16:42:37;18.10;81.20
14049;DHT22;7099;53.922;10.728;2023-09-30T16:46:42;18.00;81.20
14049;DHT22;7099;53.922;10.728;2023-09-30T16:50:48;17.90;81.60
14049;DHT22;7099;53.922;10.728;2023-09-30T16:54:55;17.90;81.80
14049;DHT22;7099;53.922;10.728;2023-09-30T16:59:01;17.80;81.90
14049;DHT22;7099;53.922;10.728;2023-09-30T17:03:07;17.80;82.20
14049;DHT22;7099;53.922;10.728;2023-09-30T17:07:13;17.70;82.30
14049;DHT22;7099;53.922;10.728;2023-09-30T17:11:20;17.60;82.50
14049;DHT22;7099;53.922;10.728;2023-09-30T17:15:26;17.50;82.60
14049;DHT22;7099;53.922;10.728;2023-09-30T17:19:32;17.40;82.80
14049;DHT22;7099;53.922;10.728;2023-09-30T17:23:38;17.30;82.80
14049;DHT22;7099;53.922;10.728;2023-09-30T17:27:44;17.30;83.10
14049;DHT22;7099;53.922;10.728;2023-09-30T17:31:49;17.20;83.30
14049;DHT22;7099;53.922;10.728;2023-09-30T17:35:59;17.20;83.60
14049;DHT22;7099;53.922;10.728;2023-09-30T17:40:06;17.10;83.80
14049;DHT22;7099;53.922;10.728;2023-09-30T17:44:12;17.10;84.00
14049;DHT22;7099;53.922;10.728;2023-09-30T17:48:19;17.00;84.20
14049;DHT22;7099;53.922;10.728;2023-09-30T17:52:27;16.90;84.30
14049;DHT22;7099;53.922;10.728;2023-09-30T17:56:33;16.90;84.50
14049;DHT22;7099;53.922;10.728;2023-09-30T18:00:39;16.80;84.90
14049;DHT22;7099;53.922;10.728;2023-09-30T18:04:44;16.70;85.10
14049;DHT22;7099;53.922;10.728;2023-09-30T18:08:51;16.70;85.20
14049;DHT22;7099;53.922;10.728;2023-09-30T18:12:57;16.60;85.20
14049;DHT22;7099;53.922;10.728;2023-09-30T18:17:04;16.60;85.40
14049;DHT22;7099;53.922;10.728;2023-09-30T18:21:10;16.50;85.50
14049;DHT22;7099;53.922;10.728;2023-09-30T18:25:18;16.50;85.70
14049;DHT22;7099;53.922;10.728;2023-09-30T18:29:24;16.40;85.80
14049;DHT22;7099;53.922;10.728;2023-09-30T18:33:31;16.40;86.00
14049;DHT22;7099;53.922;10.728;2023-09-30T18:37:36;16.40;86.20
14049;DHT22;7099;53.922;10.728;2023-09-30T18:41:42;16.30;86.40
14049;DHT22;7099;53.922;10.728;2023-09-30T18:45:49;16.30;86.70
14049;DHT22;7099;53.922;10.728;2023-09-30T18:49:55;16.20;86.80
14049;DHT22;7099;53.922;10.728;2023-09-30T18:54:00;16.20;87.00
14049;DHT22;7099;53.922;10.728;2023-09-30T18:58:07;16.10;87.10
14049;DHT22;7099;53.922;10.728;2023-09-30T19:02:12;16.10;87.20
14049;DHT22;7099;53.922;10.728;2023-09-30T19:06:19;16.00;87.30
14049;DHT22;7099;53.922;10.728;2023-09-30T19:10:25;16.00;87.40
14049;DHT22;7099;53.922;10.728;2023-09-30T19:14:30;16.00;87.40
14049;DHT22;7099;53.922;10.728;2023-09-30T19:18:36;16.00;87.50
14049;DHT22;7099;53.922;10.728;2023-09-30T19:22:42;15.90;87.40
14049;DHT22;7099;53.922;10.728;2023-09-30T19:26:47;15.90;88.30
14049;DHT22;7099;53.922;10.728;2023-09-30T19:30:53;15.90;87.80
14049;DHT22;7099;53.922;10.728;2023-09-30T19:35:00;15.80;87.90
14049;DHT22;7099;53.922;10.728;2023-09-30T19:39:07;15.80;88.20
14049;DHT22;7099;53.922;10.728;2023-09-30T19:43:14;15.70;88.20
14049;DHT22;7099;53.922;10.728;2023-09-30T19:47:20;15.70;88.60
14049;DHT22;7099;53.922;10.728;2023-09-30T19:51:25;15.60;89.30
14049;DHT22;7099;53.922;10.728;2023-09-30T19:55:31;15.60;89.00
14049;DHT22;7099;53.922;10.728;2023-09-30T19:59:38;15.50;88.90
14049;DHT22;7099;53.922;10.728;2023-09-30T20:03:45;15.50;89.00
14049;DHT22;7099;53.922;10.728;2023-09-30T20:07:51;15.50;89.10
14049;DHT22;7099;53.922;10.728;2023-09-30T20:11:56;15.50;89.30
14049;DHT22;7099;53.922;10.728;2023-09-30T20:16:07;15.50;89.40
14049;DHT22;7099;53.922;10.728;2023-09-30T20:20:13;15.40;89.40
14049;DHT22;7099;53.922;10.728;2023-09-30T20:24:23;15.40;89.40
14049;DHT22;7099;53.922;10.728;2023-09-30T20:28:29;15.40;89.50
14049;DHT22;7099;53.922;10.728;2023-09-30T20:32:35;15.40;89.50
14049;DHT22;7099;53.922;10.728;2023-09-30T20:36:41;15.40;89.60
14049;DHT22;7099;53.922;10.728;2023-09-30T20:40:49;15.40;89.80
14049;DHT22;7099;53.922;10.728;2023-09-30T20:44:55;15.40;89.90
14049;DHT22;7099;53.922;10.728;2023-09-30T20:49:01;15.30;90.00
14049;DHT22;7099;53.922;10.728;2023-09-30T20:53:10;15.30;90.00
14049;DHT22;7099;53.922;10.728;2023-09-30T20:57:18;15.30;90.10
14049;DHT22;7099;53.922;10.728;2023-09-30T21:01:23;15.30;90.20
14049;DHT22;7099;53.922;10.728;2023-09-30T21:05:31;15.20;90.20
14049;DHT22;7099;53.922;10.728;2023-09-30T21:09:39;15.20;90.30
14049;DHT22;7099;53.922;10.728;2023-09-30T21:13:45;15.20;90.40
14049;DHT22;7099;53.922;10.728;2023-09-30T21:17:51;15.20;90.40
14049;DHT22;7099;53.922;10.728;2023-09-30T21:21:57;15.10;90.50
14049;DHT22;7099;53.922;10.728;2023-09-30T21:26:03;15.10;90.50
14049;DHT22;7099;53.922;10.728;2023-09-30T21:30:11;15.10;90.60
14049;DHT22;7099;53.922;10.728;2023-09-30T21:34:17;15.10;90.70
14049;DHT22;7099;53.922;10.728;2023-09-30T21:38:23;15.10;90.70
14049;DHT22;7099;53.922;10.728;2023-09-30T21:42:29;15.10;90.80
14049;DHT22;7099;53.922;10.728;2023-09-30T21:46:34;15.10;90.80
14049;DHT22;7099;53.922;10.728;2023-09-30T21:50:40;15.10;90.90
14049;DHT22;7099;53.922;10.728;2023-09-30T21:54:46;15.10;90.90
14049;DHT22;7099;53.922;10.728;2023-09-30T21:58:51;15.00;90.90
14049;DHT22;7099;53.922;10.728;2023-09-30T22:02:57;15.00;91.00
14049;DHT22;7099;53.922;10.728;2023-09-30T22:07:02;15.00;91.10
14049;DHT22;7099;53.922;10.728;2023-09-30T22:11:09;15.00;91.10
14049;DHT22;7099;53.922;10.728;2023-09-30T22:15:14;15.00;91.10
14049;DHT22;7099;53.922;10.728;2023-09-30T22:19:20;15.00;91.10
14049;DHT22;7099;53.922;10.728;2023-09-30T22:23:27;15.00;91.20
14049;DHT22;7099;53.922;10.728;2023-09-30T22:27:32;14.90;91.30
14049;DHT22;7099;53.922;10.728;2023-09-30T22:31:38;14.90;91.40
14049;DHT22;7099;53.922;10.728;2023-09-30T22:35:44;14.90;91.30
14049;DHT22;7099;53.922;10.728;2023-09-30T22:39:50;15.00;91.40
14049;DHT22;7099;53.922;10.728;2023-09-30T22:43:56;15.00;91.50
14049;DHT22;7099;53.922;10.728;2023-09-30T22:48:01;15.00;91.40
14049;DHT22;7099;53.922;10.728;2023-09-30T22:52:08;15.00;91.40
14049;DHT22;7099;53.922;10.728;2023-09-30T22:56:17;14.90;91.40
14049;DHT22;7099;53.922;10.728;2023-09-30T23:00:23;14.90;91.50
14049;DHT22;7099;53.922;10.728;2023-09-30T23:04:36;14.90;91.50
14049;DHT22;7099;53.922;10.728;2023-09-30T23:08:41;14.90;91.50
14049;DHT22;7099;53.922;10.728;2023-09-30T23:12:47;14.90;91.60
14049;DHT22;7099;53.922;10.728;2023-09-30T23:16:52;14.90;91.60
14049;DHT22;7099;53.922;10.728;2023-09-30T23:20:58;14.90;91.60
14049;DHT22;7099;53.922;10.728;2023-09-30T23:25:05;14.90;91.60
14049;DHT22;7099;53.922;10.728;2023-09-30T23:29:16;14.90;91.60
14049;DHT22;7099;53.922;10.728;2023-09-30T23:33:22;14.90;91.70
14049;DHT22;7099;53.922;10.728;2023-09-30T23:37:27;14.90;91.70
14049;DHT22;7099;53.922;10.728;2023-09-30T23:41:33;14.90;91.70
14049;DHT22;7099;53.922;10.728;2023-09-30T23:45:38;14.90;91.60
14049;DHT22;7099;53.922;10.728;2023-09-30T23:49:45;14.90;91.70
14049;DHT22;7099;53.922;10.728;2023-09-30T23:53:50;14.90;91.70
14049;DHT22;7099;53.922;10.728;2023-09-30T23:57:57;14.90;91.70
